createdAt,value
2019-05-25T00:00:25.153Z,8.80
2019-05-25T00:01:25.115Z,9.50
2019-05-25T00:02:25.109Z,10.30
2019-05-25T00:03:25.096Z,10.10
2019-05-25T00:04:25.086Z,9.40
2019-05-25T00:05:25.098Z,9.50
2019-05-25T00:06:25.066Z,7.90
2019-05-25T00:07:25.055Z,10.20
2019-05-25T00:08:25.043Z,9.80
2019-05-25T00:09:25.033Z,9.70
2019-05-25T00:10:25.099Z,9.70
2019-05-25T00:11:25.014Z,10.00
2019-05-25T00:12:24.995Z,7.40
2019-05-25T00:13:25.026Z,10.00
2019-05-25T00:14:24.974Z,8.80
2019-05-25T00:15:24.990Z,10.80
2019-05-25T00:16:24.955Z,8.70
2019-05-25T00:17:24.943Z,10.80
2019-05-25T00:18:24.936Z,10.20
2019-05-25T00:19:24.928Z,11.90
2019-05-25T00:20:24.940Z,10.20
2019-05-25T00:21:24.910Z,12.40
2019-05-25T00:22:24.895Z,11.00
2019-05-25T00:23:24.880Z,10.30
2019-05-25T00:24:24.874Z,9.60
2019-05-25T00:25:24.892Z,10.40
2019-05-25T00:26:24.854Z,8.70
2019-05-25T00:27:24.839Z,9.60
2019-05-25T00:28:24.830Z,10.50
2019-05-25T00:29:24.821Z,11.30
2019-05-25T00:30:24.932Z,11.50
2019-05-25T00:31:24.795Z,11.30
2019-05-25T00:32:24.786Z,11.10
2019-05-25T00:33:24.776Z,9.90
2019-05-25T00:34:24.778Z,11.00
2019-05-25T00:35:24.805Z,9.40
2019-05-25T00:36:24.746Z,10.60
2019-05-25T00:37:24.732Z,10.10
2019-05-25T00:38:24.723Z,13.10
2019-05-25T00:39:24.707Z,11.70
2019-05-25T00:40:24.702Z,9.30
2019-05-25T00:41:24.715Z,11.00
2019-05-25T00:42:24.677Z,14.40
2019-05-25T00:43:24.671Z,12.70
2019-05-25T00:44:24.663Z,11.70
2019-05-25T00:45:24.644Z,11.00
2019-05-25T00:46:24.658Z,12.30
2019-05-25T00:47:24.633Z,11.20
2019-05-25T00:48:24.608Z,11.10
2019-05-25T00:49:24.598Z,9.30
2019-05-25T00:50:24.600Z,11.10
2019-05-25T00:51:24.606Z,10.00
2019-05-25T00:52:24.569Z,9.40
2019-05-25T00:53:24.554Z,10.60
2019-05-25T00:54:28.031Z,12.90
2019-05-25T00:55:24.532Z,11.60
2019-05-25T00:56:24.547Z,11.00
2019-05-25T00:57:24.510Z,12.50
2019-05-25T00:58:24.500Z,15.50
2019-05-25T00:59:24.492Z,12.20
2019-05-25T01:00:24.478Z,12.60
2019-05-25T01:01:24.637Z,11.30
2019-05-25T01:02:24.458Z,14.60
2019-05-25T01:03:24.447Z,12.40
2019-05-25T01:04:24.444Z,13.40
2019-05-25T01:05:24.434Z,12.10
2019-05-25T01:06:24.441Z,11.30
2019-05-25T01:07:24.403Z,11.00
2019-05-25T01:08:24.400Z,12.70
2019-05-25T01:09:24.381Z,11.20
2019-05-25T01:10:24.370Z,12.80
2019-05-25T01:11:24.390Z,12.50
2019-05-25T01:12:24.352Z,12.30
2019-05-25T01:13:24.342Z,11.40
2019-05-25T01:14:24.329Z,13.20
2019-05-25T01:15:24.319Z,13.30
2019-05-25T01:16:24.333Z,12.80
2019-05-25T01:17:24.293Z,17.50
2019-05-25T01:18:24.280Z,12.80
2019-05-25T01:19:24.272Z,15.40
2019-05-25T01:20:24.259Z,13.60
2019-05-25T01:21:24.276Z,9.40
2019-05-25T01:22:24.242Z,14.50
2019-05-25T01:23:24.228Z,15.70
2019-05-25T01:24:24.216Z,14.00
2019-05-25T01:25:24.215Z,14.80
2019-05-25T01:26:24.218Z,13.70
2019-05-25T01:27:24.189Z,14.80
2019-05-25T01:28:24.180Z,14.30
2019-05-25T01:29:24.159Z,11.20
2019-05-25T01:30:24.147Z,15.70
2019-05-25T01:31:24.172Z,15.50
2019-05-25T01:32:24.132Z,15.30
2019-05-25T01:33:24.116Z,15.10
2019-05-25T01:34:24.112Z,14.70
2019-05-25T01:35:24.095Z,14.10
2019-05-25T01:36:24.115Z,12.00
2019-05-25T01:37:24.080Z,13.70
2019-05-25T01:38:24.067Z,12.60
2019-05-25T01:39:24.052Z,14.50
2019-05-25T01:40:24.047Z,14.50
2019-05-25T01:41:24.056Z,17.90
2019-05-25T01:42:24.019Z,13.90
2019-05-25T01:43:24.012Z,14.50
2019-05-25T01:44:24.007Z,15.90
2019-05-25T01:45:23.983Z,17.30
2019-05-25T01:46:24.004Z,13.90
2019-05-25T01:47:23.964Z,18.30
2019-05-25T01:48:23.952Z,14.00
2019-05-25T01:49:23.945Z,13.40
2019-05-25T01:50:23.929Z,17.30
2019-05-25T01:51:23.955Z,13.60
2019-05-25T01:52:23.912Z,16.10
2019-05-25T01:53:23.897Z,15.20
2019-05-25T01:54:23.884Z,15.40
2019-05-25T01:55:23.879Z,15.90
2019-05-25T01:56:23.898Z,16.00
2019-05-25T01:57:23.856Z,18.40
2019-05-25T01:58:23.843Z,16.90
2019-05-25T01:59:23.831Z,15.70
2019-05-25T02:00:23.821Z,16.80
2019-05-25T02:01:23.838Z,22.60
2019-05-25T02:02:23.801Z,17.30
2019-05-25T02:03:23.789Z,16.40
2019-05-25T02:04:23.775Z,18.30
2019-05-25T02:05:23.767Z,17.30
2019-05-25T02:06:23.794Z,18.30
2019-05-25T02:07:23.745Z,17.20
2019-05-25T02:08:23.734Z,17.30
2019-05-25T02:09:23.719Z,19.10
2019-05-25T02:10:23.712Z,16.20
2019-05-25T02:11:23.732Z,15.30
2019-05-25T02:12:23.697Z,17.90
2019-05-25T02:13:23.679Z,15.90
2019-05-25T02:14:23.675Z,15.90
2019-05-25T02:15:23.659Z,19.40
2019-05-25T02:16:23.674Z,17.60
2019-05-25T02:17:23.644Z,15.50
2019-05-25T02:18:23.630Z,17.90
2019-05-25T02:19:23.619Z,17.90
2019-05-25T02:20:23.602Z,17.50
2019-05-25T02:21:23.623Z,19.20
2019-05-25T02:22:23.584Z,16.00
2019-05-25T02:23:23.572Z,18.20
2019-05-25T02:24:23.566Z,17.90
2019-05-25T02:25:23.558Z,18.70
2019-05-25T02:26:23.568Z,20.00
2019-05-25T02:27:23.529Z,17.40
2019-05-25T02:28:23.519Z,17.40
2019-05-25T02:29:23.510Z,16.50
2019-05-25T02:30:23.498Z,18.90
2019-05-25T02:31:23.514Z,18.50
2019-05-25T02:32:23.471Z,18.80
2019-05-25T02:33:23.474Z,17.90
2019-05-25T02:34:23.455Z,19.90
2019-05-25T02:35:23.441Z,20.00
2019-05-25T02:36:23.455Z,20.30
2019-05-25T02:37:23.420Z,20.40
2019-05-25T02:38:23.409Z,15.30
2019-05-25T02:39:23.402Z,18.80
2019-05-25T02:40:23.389Z,21.40
2019-05-25T02:41:23.399Z,17.30
2019-05-25T02:42:23.363Z,18.30
2019-05-25T02:43:23.357Z,18.20
2019-05-25T02:44:23.342Z,15.70
2019-05-25T02:45:23.333Z,16.10
2019-05-25T02:46:23.350Z,19.00
2019-05-25T02:47:23.323Z,15.20
2019-05-25T02:48:23.301Z,17.90
2019-05-25T02:49:23.287Z,15.60
2019-05-25T02:50:23.279Z,17.30
2019-05-25T02:51:23.297Z,18.20
2019-05-25T02:52:23.259Z,19.00
2019-05-25T02:53:23.248Z,18.30
2019-05-25T02:54:23.236Z,16.90
2019-05-25T02:55:33.962Z,15.40
2019-05-25T02:56:24.236Z,19.00
2019-05-25T02:57:23.205Z,19.00
2019-05-25T02:58:23.193Z,19.00
2019-05-25T02:59:23.181Z,18.90
2019-05-25T03:00:23.166Z,17.30
2019-05-25T03:01:23.184Z,17.40
2019-05-25T03:02:23.151Z,20.30
2019-05-25T03:03:23.138Z,23.30
2019-05-25T03:04:23.125Z,18.90
2019-05-25T03:05:23.111Z,20.50
2019-05-25T03:06:23.135Z,21.40
2019-05-25T03:07:23.101Z,20.40
2019-05-25T03:08:23.080Z,20.10
2019-05-25T03:09:23.072Z,21.50
2019-05-25T03:10:23.059Z,19.00
2019-05-25T03:11:23.076Z,22.10
2019-05-25T03:12:23.039Z,21.50
2019-05-25T03:13:23.035Z,19.50
2019-05-25T03:14:23.016Z,20.10
2019-05-25T03:15:23.008Z,19.00
2019-05-25T03:16:23.031Z,25.50
2019-05-25T03:17:22.987Z,22.80
2019-05-25T03:18:22.972Z,21.20
2019-05-25T03:19:22.964Z,20.10
2019-05-25T03:20:22.953Z,22.50
2019-05-25T03:21:22.941Z,23.40
2019-05-25T03:22:22.969Z,20.90
2019-05-25T03:23:22.920Z,20.20
2019-05-25T03:24:22.907Z,18.90
2019-05-25T03:25:22.902Z,19.70
2019-05-25T03:26:22.900Z,21.20
2019-05-25T03:27:22.904Z,16.80
2019-05-25T03:28:22.869Z,17.60
2019-05-25T03:29:22.861Z,19.40
2019-05-25T03:30:22.846Z,19.30
2019-05-25T03:31:22.836Z,19.30
2019-05-25T03:32:22.844Z,18.60
2019-05-25T03:33:22.818Z,17.90
2019-05-25T03:34:22.803Z,18.70
2019-05-25T03:35:22.792Z,18.20
2019-05-25T03:36:22.781Z,16.80
2019-05-25T03:37:22.807Z,18.90
2019-05-25T03:38:22.757Z,18.30
2019-05-25T03:39:22.748Z,18.80
2019-05-25T03:40:22.737Z,16.20
2019-05-25T03:41:22.729Z,17.60
2019-05-25T03:42:22.740Z,14.60
2019-05-25T03:43:22.703Z,15.90
2019-05-25T03:44:22.701Z,17.10
2019-05-25T03:45:22.684Z,14.50
2019-05-25T03:46:22.668Z,17.10
2019-05-25T03:47:22.687Z,15.00
2019-05-25T03:48:22.648Z,15.80
2019-05-25T03:49:22.634Z,14.90
2019-05-25T03:50:22.633Z,17.90
2019-05-25T03:51:22.616Z,14.20
2019-05-25T03:52:22.638Z,15.50
2019-05-25T03:53:22.591Z,15.00
2019-05-25T03:54:22.585Z,16.70
2019-05-25T03:55:22.575Z,14.70
2019-05-25T03:56:22.562Z,17.20
2019-05-25T03:57:22.583Z,14.40
2019-05-25T03:58:22.541Z,17.00
2019-05-25T03:59:22.531Z,14.10
2019-05-25T04:00:22.522Z,17.70
2019-05-25T04:01:22.510Z,14.90
2019-05-25T04:02:22.528Z,16.00
2019-05-25T04:03:22.485Z,16.10
2019-05-25T04:04:22.476Z,14.80
2019-05-25T04:05:22.463Z,12.40
2019-05-25T04:06:22.453Z,16.50
2019-05-25T04:07:22.472Z,17.00
2019-05-25T04:08:22.436Z,13.80
2019-05-25T04:09:22.425Z,14.40
2019-05-25T04:10:22.410Z,14.20
2019-05-25T04:11:22.401Z,13.70
2019-05-25T04:12:22.420Z,14.10
2019-05-25T04:13:22.391Z,15.60
2019-05-25T04:14:22.368Z,14.60
2019-05-25T04:15:22.362Z,16.20
2019-05-25T04:16:22.349Z,15.20
2019-05-25T04:17:22.364Z,15.20
2019-05-25T04:18:22.326Z,12.90
2019-05-25T04:19:22.323Z,12.70
2019-05-25T04:20:22.310Z,12.90
2019-05-25T04:21:22.295Z,13.90
2019-05-25T04:22:22.314Z,14.40
2019-05-25T04:23:22.276Z,15.70
2019-05-25T04:24:22.269Z,12.50
2019-05-25T04:25:22.261Z,13.50
2019-05-25T04:26:23.017Z,15.00
2019-05-25T04:27:22.264Z,13.70
2019-05-25T04:28:22.223Z,14.30
2019-05-25T04:29:22.212Z,13.90
2019-05-25T04:30:22.204Z,13.90
2019-05-25T04:31:22.211Z,14.50
2019-05-25T04:32:22.204Z,14.40
2019-05-25T04:33:22.196Z,12.20
2019-05-25T04:34:22.174Z,14.60
2019-05-25T04:35:22.147Z,15.10
2019-05-25T04:36:22.141Z,12.90
2019-05-25T04:37:22.152Z,18.00
2019-05-25T04:38:22.119Z,15.10
2019-05-25T04:39:22.107Z,14.90
2019-05-25T04:40:23.081Z,15.90
2019-05-25T04:41:22.094Z,15.80
2019-05-25T04:42:22.175Z,16.30
2019-05-25T04:43:22.230Z,13.30
2019-05-25T04:44:22.052Z,13.70
2019-05-25T04:45:22.075Z,13.70
2019-05-25T04:46:22.101Z,13.60
2019-05-25T04:47:26.931Z,15.80
2019-05-25T04:48:23.007Z,14.60
2019-05-25T04:49:22.000Z,13.10
2019-05-25T04:50:21.987Z,15.50
2019-05-25T04:51:21.976Z,13.70
2019-05-25T04:52:21.996Z,15.00
2019-05-25T04:53:21.960Z,17.40
2019-05-25T04:54:21.955Z,15.70
2019-05-25T04:55:21.938Z,13.80
2019-05-25T04:56:37.899Z,16.30
2019-05-25T04:57:23.065Z,13.80
2019-05-25T04:58:22.076Z,17.00
2019-05-25T04:59:22.202Z,16.90
2019-05-25T05:00:21.885Z,17.00
2019-05-25T05:01:22.753Z,19.30
2019-05-25T05:02:21.892Z,18.20
2019-05-25T05:03:21.851Z,18.60
2019-05-25T05:04:21.846Z,18.00
2019-05-25T05:05:21.833Z,14.60
2019-05-25T05:06:21.823Z,16.80
2019-05-25T05:07:21.832Z,17.00
2019-05-25T05:08:21.799Z,19.30
2019-05-25T05:09:21.784Z,18.50
2019-05-25T05:10:21.773Z,15.40
2019-05-25T05:11:21.766Z,17.30
2019-05-25T05:12:21.778Z,18.30
2019-05-25T05:13:21.739Z,19.40
2019-05-25T05:14:21.730Z,15.80
2019-05-25T05:15:21.748Z,14.50
2019-05-25T05:16:21.719Z,14.50
2019-05-25T05:17:21.723Z,15.50
2019-05-25T05:18:21.704Z,15.10
2019-05-25T05:19:21.678Z,15.70
2019-05-25T05:20:21.665Z,16.40
2019-05-25T05:21:21.652Z,16.80
2019-05-25T05:22:21.665Z,16.10
2019-05-25T05:23:21.632Z,15.60
2019-05-25T05:24:21.615Z,15.90
2019-05-25T05:25:21.607Z,16.40
2019-05-25T05:26:21.598Z,15.40
2019-05-25T05:27:21.611Z,15.30
2019-05-25T05:28:21.576Z,14.40
2019-05-25T05:29:21.560Z,14.30
2019-05-25T05:30:21.547Z,14.70
2019-05-25T05:31:23.784Z,14.00
2019-05-25T05:32:27.666Z,13.20
2019-05-25T05:33:22.519Z,16.80
2019-05-25T05:34:21.506Z,15.00
2019-05-25T05:35:21.495Z,13.40
2019-05-25T05:36:21.485Z,14.20
2019-05-25T05:37:21.499Z,15.00
2019-05-25T05:38:21.463Z,15.70
2019-05-25T05:39:21.451Z,15.20
2019-05-25T05:40:21.449Z,15.70
2019-05-25T05:41:21.432Z,13.00
2019-05-25T05:42:21.448Z,13.90
2019-05-25T05:43:21.415Z,11.80
2019-05-25T05:44:21.395Z,14.10
2019-05-25T05:45:21.386Z,13.20
2019-05-25T05:46:21.375Z,16.30
2019-05-25T05:47:21.392Z,16.90
2019-05-25T05:48:21.351Z,16.40
2019-05-25T05:49:21.341Z,15.90
2019-05-25T05:50:21.337Z,13.80
2019-05-25T05:51:21.321Z,13.30
2019-05-25T05:52:21.348Z,13.80
2019-05-25T05:53:21.303Z,14.00
2019-05-25T05:54:21.288Z,13.10
2019-05-25T05:55:21.275Z,12.60
2019-05-25T05:56:21.267Z,12.30
2019-05-25T05:57:21.255Z,12.50
2019-05-25T05:58:21.275Z,15.10
2019-05-25T05:59:21.231Z,14.60
2019-05-25T06:00:21.227Z,14.20
2019-05-25T06:01:21.213Z,14.20
2019-05-25T06:02:21.199Z,12.30
2019-05-25T06:03:21.219Z,15.70
2019-05-25T06:04:21.187Z,14.30
2019-05-25T06:05:21.172Z,13.30
2019-05-25T06:06:21.160Z,15.80
2019-05-25T06:07:21.148Z,16.20
2019-05-25T06:08:21.163Z,15.00
2019-05-25T06:09:21.131Z,13.40
2019-05-25T06:10:21.125Z,14.50
2019-05-25T06:11:21.104Z,12.30
2019-05-25T06:12:21.099Z,14.40
2019-05-25T06:13:21.111Z,12.10
2019-05-25T06:14:21.077Z,14.80
2019-05-25T06:15:21.062Z,12.50
2019-05-25T06:16:21.050Z,14.00
2019-05-25T06:17:21.045Z,12.20
2019-05-25T06:18:21.062Z,13.40
2019-05-25T06:19:21.021Z,12.60
2019-05-25T06:20:21.011Z,12.80
2019-05-25T06:21:20.998Z,15.00
2019-05-25T06:22:20.989Z,12.80
2019-05-25T06:23:21.004Z,14.70
2019-05-25T06:24:20.962Z,11.10
2019-05-25T06:25:20.958Z,10.30
2019-05-25T06:26:20.942Z,12.40
2019-05-25T06:27:27.488Z,11.70
2019-05-25T06:28:22.596Z,11.60
2019-05-25T06:29:20.913Z,12.10
2019-05-25T06:30:20.897Z,13.70
2019-05-25T06:31:20.888Z,13.30
2019-05-25T06:32:20.880Z,12.10
2019-05-25T06:33:20.893Z,10.90
2019-05-25T06:34:20.857Z,13.50
2019-05-25T06:35:20.866Z,10.30
2019-05-25T06:36:20.836Z,11.80
2019-05-25T06:37:20.827Z,10.90
2019-05-25T06:38:20.840Z,12.80
2019-05-25T06:39:20.835Z,10.30
2019-05-25T06:40:20.791Z,10.30
2019-05-25T06:41:20.784Z,10.00
2019-05-25T06:42:20.767Z,12.00
2019-05-25T06:43:20.784Z,12.30
2019-05-25T06:44:20.743Z,11.30
2019-05-25T06:45:20.737Z,10.90
2019-05-25T06:46:20.723Z,10.30
2019-05-25T06:47:20.713Z,12.60
2019-05-25T06:48:20.735Z,10.00
2019-05-25T06:49:20.696Z,8.60
2019-05-25T06:50:20.683Z,12.40
2019-05-25T06:51:20.669Z,9.20
2019-05-25T06:52:20.659Z,10.70
2019-05-25T06:53:20.675Z,9.80
2019-05-25T06:54:20.641Z,10.80
2019-05-25T06:55:20.626Z,8.60
2019-05-25T06:56:20.616Z,9.00
2019-05-25T06:57:20.606Z,11.90
2019-05-25T06:58:20.619Z,10.20
2019-05-25T06:59:20.588Z,8.00
2019-05-25T07:00:20.580Z,9.00
2019-05-25T07:01:20.564Z,9.50
2019-05-25T07:02:22.578Z,8.80
2019-05-25T07:03:20.570Z,11.60
2019-05-25T07:04:20.531Z,7.90
2019-05-25T07:05:20.537Z,7.70
2019-05-25T07:06:20.508Z,8.60
2019-05-25T07:07:20.495Z,6.80
2019-05-25T07:08:20.525Z,8.90
2019-05-25T07:09:20.475Z,10.80
2019-05-25T07:10:20.466Z,8.20
2019-05-25T07:11:20.454Z,8.10
2019-05-25T07:12:20.446Z,10.10
2019-05-25T07:13:20.472Z,8.40
2019-05-25T07:14:20.419Z,9.60
2019-05-25T07:15:20.413Z,8.40
2019-05-25T07:16:20.398Z,10.30
2019-05-25T07:17:20.392Z,9.60
2019-05-25T07:18:20.605Z,9.40
2019-05-25T07:19:20.372Z,8.60
2019-05-25T07:20:20.357Z,9.10
2019-05-25T07:21:20.344Z,10.60
2019-05-25T07:22:20.335Z,8.40
2019-05-25T07:23:20.350Z,8.20
2019-05-25T07:24:20.313Z,8.10
2019-05-25T07:25:20.648Z,7.10
2019-05-25T07:26:20.287Z,8.20
2019-05-25T07:27:20.279Z,9.40
2019-05-25T07:28:20.297Z,6.50
2019-05-25T07:29:20.265Z,9.30
2019-05-25T07:30:20.256Z,8.80
2019-05-25T07:31:20.235Z,7.60
2019-05-25T07:32:20.226Z,9.30
2019-05-25T07:33:20.248Z,7.20
2019-05-25T07:34:20.211Z,6.10
2019-05-25T07:35:20.219Z,9.90
2019-05-25T07:36:20.187Z,7.70
2019-05-25T07:37:20.176Z,11.30
2019-05-25T07:38:20.192Z,7.60
2019-05-25T07:39:20.154Z,7.80
2019-05-25T07:40:20.150Z,7.90
2019-05-25T07:41:20.130Z,8.90
2019-05-25T07:42:20.265Z,7.80
2019-05-25T07:43:20.141Z,8.60
2019-05-25T07:44:20.099Z,9.30
2019-05-25T07:45:20.091Z,11.00
2019-05-25T07:46:20.077Z,7.80
2019-05-25T07:47:20.065Z,7.50
2019-05-25T07:48:20.251Z,8.20
2019-05-25T07:49:20.059Z,7.60
2019-05-25T07:50:20.035Z,9.50
2019-05-25T07:51:20.025Z,8.10
2019-05-25T07:52:20.021Z,7.60
2019-05-25T07:53:20.024Z,9.20
2019-05-25T07:54:19.996Z,6.70
2019-05-25T07:55:19.975Z,9.10
2019-05-25T07:56:19.977Z,8.40
2019-05-25T07:57:19.960Z,6.80
2019-05-25T07:58:19.972Z,9.40
2019-05-25T07:59:19.933Z,11.00
2019-05-25T08:00:19.923Z,9.00
2019-05-25T08:01:19.916Z,9.50
2019-05-25T08:02:19.903Z,9.50
2019-05-25T08:03:19.904Z,11.30
2019-05-25T08:04:19.883Z,9.00
2019-05-25T08:05:19.869Z,9.20
2019-05-25T08:06:19.861Z,11.40
2019-05-25T08:07:19.847Z,9.60
2019-05-25T08:08:19.835Z,8.50
2019-05-25T08:09:19.855Z,8.10
2019-05-25T08:10:19.831Z,8.80
2019-05-25T08:11:19.805Z,8.00
2019-05-25T08:12:19.793Z,8.50
2019-05-25T08:13:19.780Z,9.20
2019-05-25T08:14:19.800Z,7.90
2019-05-25T08:15:19.766Z,9.40
2019-05-25T08:16:19.755Z,10.00
2019-05-25T08:17:19.757Z,9.00
2019-05-25T08:18:19.722Z,8.30
2019-05-25T08:19:19.744Z,10.50
2019-05-25T08:20:19.708Z,7.50
2019-05-25T08:21:19.691Z,7.80
2019-05-25T08:22:19.706Z,11.00
2019-05-25T08:23:19.681Z,10.40
2019-05-25T08:24:19.687Z,7.50
2019-05-25T08:25:19.650Z,8.40
2019-05-25T08:26:19.641Z,7.90
2019-05-25T08:27:19.627Z,6.30
2019-05-25T08:28:32.155Z,8.80
2019-05-25T08:29:20.636Z,8.00
2019-05-25T08:30:19.596Z,6.70
2019-05-25T08:31:19.587Z,6.70
2019-05-25T08:32:19.768Z,7.70
2019-05-25T08:33:19.563Z,9.70
2019-05-25T08:34:19.585Z,7.00
2019-05-25T08:35:19.540Z,8.10
2019-05-25T08:36:19.533Z,8.50
2019-05-25T08:37:19.525Z,8.50
2019-05-25T08:38:19.517Z,9.50
2019-05-25T08:39:19.527Z,7.10
2019-05-25T08:40:19.490Z,6.90
2019-05-25T08:41:19.477Z,7.80
2019-05-25T08:42:19.467Z,6.70
2019-05-25T08:43:19.456Z,8.50
2019-05-25T08:44:19.471Z,9.70
2019-05-25T08:45:19.440Z,9.60
2019-05-25T08:46:19.425Z,7.60
2019-05-25T08:47:19.416Z,9.10
2019-05-25T08:48:19.403Z,9.00
2019-05-25T08:49:19.415Z,8.90
2019-05-25T08:50:19.381Z,7.40
2019-05-25T08:51:19.367Z,7.40
2019-05-25T08:52:19.363Z,7.90
2019-05-25T08:53:23.232Z,10.60
2019-05-25T08:54:20.361Z,9.50
2019-05-25T08:55:19.327Z,7.30
2019-05-25T08:56:19.314Z,8.90
2019-05-25T08:57:19.308Z,7.20
2019-05-25T08:58:19.292Z,9.60
2019-05-25T08:59:19.311Z,7.70
2019-05-25T09:00:19.268Z,8.20
2019-05-25T09:01:19.264Z,9.20
2019-05-25T09:02:19.249Z,8.00
2019-05-25T09:03:19.236Z,6.50
2019-05-25T09:04:19.253Z,6.90
2019-05-25T09:05:19.211Z,7.90
2019-05-25T09:06:19.203Z,5.90
2019-05-25T09:07:19.192Z,10.00
2019-05-25T09:08:19.188Z,11.00
2019-05-25T09:09:19.199Z,6.50
2019-05-25T09:10:19.159Z,7.10
2019-05-25T09:11:19.147Z,7.40
2019-05-25T09:12:19.144Z,7.20
2019-05-25T09:13:19.131Z,6.70
2019-05-25T09:14:19.145Z,7.50
2019-05-25T09:15:19.107Z,11.70
2019-05-25T09:16:19.100Z,7.80
2019-05-25T09:17:19.085Z,7.50
2019-05-25T09:18:19.092Z,9.00
2019-05-25T09:19:19.095Z,8.40
2019-05-25T09:20:19.053Z,9.00
2019-05-25T09:21:19.039Z,6.40
2019-05-25T09:22:19.036Z,7.60
2019-05-25T09:23:19.022Z,6.70
2019-05-25T09:24:19.035Z,7.50
2019-05-25T09:25:19.005Z,6.80
2019-05-25T09:26:18.989Z,7.00
2019-05-25T09:27:18.981Z,6.00
2019-05-25T09:28:18.964Z,6.80
2019-05-25T09:29:18.984Z,6.20
2019-05-25T09:30:18.943Z,7.40
2019-05-25T09:31:18.932Z,5.80
2019-05-25T09:32:18.931Z,8.20
2019-05-25T09:33:18.917Z,8.30
2019-05-25T09:34:18.930Z,5.80
2019-05-25T09:35:18.899Z,6.20
2019-05-25T09:36:18.885Z,5.70
2019-05-25T09:37:18.872Z,5.30
2019-05-25T09:38:18.883Z,8.40
2019-05-25T09:39:18.876Z,7.40
2019-05-25T09:40:18.845Z,7.60
2019-05-25T09:41:18.836Z,8.00
2019-05-25T09:42:18.820Z,6.70
2019-05-25T09:43:18.808Z,7.10
2019-05-25T09:44:18.999Z,7.90
2019-05-25T09:45:18.788Z,7.60
2019-05-25T09:46:18.964Z,8.80
2019-05-25T09:47:18.772Z,6.50
2019-05-25T09:48:18.756Z,7.00
2019-05-25T09:49:18.772Z,7.20
2019-05-25T09:50:18.735Z,8.90
2019-05-25T09:51:18.723Z,8.70
2019-05-25T09:52:18.773Z,6.50
2019-05-25T09:53:18.705Z,7.00
2019-05-25T09:54:18.719Z,8.10
2019-05-25T09:55:18.681Z,7.20
2019-05-25T09:56:18.671Z,6.50
2019-05-25T09:57:18.666Z,7.90
2019-05-25T09:58:18.656Z,7.80
2019-05-25T09:59:20.416Z,7.40
2019-05-25T10:00:18.653Z,7.00
2019-05-25T10:01:18.618Z,7.10
2019-05-25T10:02:18.610Z,5.50
2019-05-25T10:03:18.600Z,8.20
2019-05-25T10:04:18.639Z,7.90
2019-05-25T10:05:18.656Z,9.00
2019-05-25T10:06:18.581Z,8.10
2019-05-25T10:07:18.566Z,8.80
2019-05-25T10:08:18.556Z,6.10
2019-05-25T10:09:18.566Z,7.30
2019-05-25T10:10:18.523Z,8.10
2019-05-25T10:11:18.513Z,6.80
2019-05-25T10:12:18.504Z,7.00
2019-05-25T10:13:18.505Z,8.70
2019-05-25T10:14:18.506Z,7.10
2019-05-25T10:15:18.506Z,9.60
2019-05-25T10:16:18.463Z,7.20
2019-05-25T10:17:18.454Z,6.30
2019-05-25T10:18:18.445Z,8.30
2019-05-25T10:19:18.460Z,6.80
2019-05-25T10:20:18.427Z,8.00
2019-05-25T10:21:18.407Z,5.80
2019-05-25T10:22:18.398Z,7.10
2019-05-25T10:23:18.391Z,7.50
2019-05-25T10:24:18.404Z,7.30
2019-05-25T10:25:18.368Z,7.30
2019-05-25T10:26:18.423Z,5.80
2019-05-25T10:27:18.348Z,9.70
2019-05-25T10:28:18.338Z,7.50
2019-05-25T10:29:18.363Z,7.40
2019-05-25T10:30:18.323Z,7.00
2019-05-25T10:31:18.309Z,6.80
2019-05-25T10:32:18.295Z,6.00
2019-05-25T10:33:21.681Z,8.00
2019-05-25T10:34:18.278Z,7.20
2019-05-25T10:35:18.291Z,6.80
2019-05-25T10:36:18.251Z,9.10
2019-05-25T10:37:18.271Z,7.30
2019-05-25T10:38:18.229Z,8.20
2019-05-25T10:39:18.222Z,7.00
2019-05-25T10:40:18.234Z,7.10
2019-05-25T10:41:18.201Z,7.70
2019-05-25T10:42:18.193Z,7.10
2019-05-25T10:43:18.175Z,6.80
2019-05-25T10:44:18.172Z,6.10
2019-05-25T10:45:18.186Z,6.80
2019-05-25T10:46:18.142Z,6.80
2019-05-25T10:47:18.136Z,7.20
2019-05-25T10:48:18.129Z,8.20
2019-05-25T10:49:18.115Z,7.40
2019-05-25T10:50:18.126Z,6.90
2019-05-25T10:51:18.099Z,7.20
2019-05-25T10:52:18.099Z,9.90
2019-05-25T10:53:18.073Z,7.80
2019-05-25T10:54:18.065Z,7.90
2019-05-25T10:55:18.076Z,6.20
2019-05-25T10:56:18.044Z,7.70
2019-05-25T10:57:18.034Z,7.60
2019-05-25T10:58:18.019Z,6.20
2019-05-25T10:59:18.009Z,7.30
2019-05-25T11:00:18.052Z,6.40
2019-05-25T11:01:17.994Z,6.20
2019-05-25T11:02:17.981Z,9.40
2019-05-25T11:03:17.973Z,7.10
2019-05-25T11:04:17.990Z,6.40
2019-05-25T11:05:17.995Z,5.40
2019-05-25T11:06:17.941Z,8.30
2019-05-25T11:07:17.928Z,7.30
2019-05-25T11:08:17.919Z,6.70
2019-05-25T11:09:17.911Z,6.40
2019-05-25T11:10:17.923Z,6.60
2019-05-25T11:11:17.895Z,6.30
2019-05-25T11:12:17.880Z,8.40
2019-05-25T11:13:17.870Z,7.40
2019-05-25T11:14:17.857Z,5.60
2019-05-25T11:15:17.873Z,6.30
2019-05-25T11:16:17.849Z,6.20
2019-05-25T11:17:17.832Z,8.70
2019-05-25T11:18:17.819Z,7.00
2019-05-25T11:19:17.803Z,6.70
2019-05-25T11:20:17.834Z,7.50
2019-05-25T11:21:17.802Z,6.50
2019-05-25T11:22:17.781Z,7.90
2019-05-25T11:23:17.771Z,6.70
2019-05-25T11:24:17.757Z,5.90
2019-05-25T11:25:17.781Z,7.00
2019-05-25T11:26:17.740Z,5.80
2019-05-25T11:27:17.724Z,6.30
2019-05-25T11:28:17.717Z,6.70
2019-05-25T11:29:17.731Z,7.30
2019-05-25T11:30:17.721Z,6.90
2019-05-25T11:31:17.691Z,7.90
2019-05-25T11:32:17.671Z,7.20
2019-05-25T11:33:17.660Z,8.20
2019-05-25T11:34:17.650Z,10.10
2019-05-25T11:35:17.667Z,7.50
2019-05-25T11:36:17.629Z,9.00
2019-05-25T11:37:17.616Z,6.90
2019-05-25T11:38:17.613Z,7.10
2019-05-25T11:39:17.602Z,9.20
2019-05-25T11:40:17.619Z,7.10
2019-05-25T11:41:17.579Z,7.10
2019-05-25T11:42:17.565Z,9.70
2019-05-25T11:43:17.556Z,7.20
2019-05-25T11:44:17.546Z,6.00
2019-05-25T11:45:17.563Z,6.80
2019-05-25T11:46:17.540Z,8.70
2019-05-25T11:47:17.512Z,6.90
2019-05-25T11:48:17.530Z,7.30
2019-05-25T11:49:22.460Z,5.50
2019-05-25T11:50:18.506Z,5.80
2019-05-25T11:51:17.472Z,7.90
2019-05-25T11:52:17.460Z,9.70
2019-05-25T11:53:17.447Z,6.80
2019-05-25T11:54:17.435Z,6.60
2019-05-25T11:55:17.465Z,7.80
2019-05-25T11:56:17.425Z,8.30
2019-05-25T11:57:17.410Z,7.80
2019-05-25T11:58:17.400Z,9.70
2019-05-25T11:59:17.387Z,9.30
2019-05-25T12:00:24.840Z,7.30
2019-05-25T12:01:18.361Z,7.10
2019-05-25T12:02:17.360Z,5.70
2019-05-25T12:03:17.346Z,7.40
2019-05-25T12:04:17.327Z,7.50
2019-05-25T12:05:17.344Z,6.40
2019-05-25T12:06:17.310Z,6.90
2019-05-25T12:07:17.299Z,7.40
2019-05-25T12:08:17.285Z,7.70
2019-05-25T12:09:17.271Z,6.50
2019-05-25T12:10:17.288Z,6.60
2019-05-25T12:11:17.252Z,5.00
2019-05-25T12:12:17.242Z,5.50
2019-05-25T12:13:17.234Z,6.90
2019-05-25T12:14:17.216Z,6.30
2019-05-25T12:15:17.237Z,9.00
2019-05-25T12:16:17.196Z,6.10
2019-05-25T12:17:17.186Z,6.50
2019-05-25T12:18:17.176Z,7.40
2019-05-25T12:19:17.164Z,7.00
2019-05-25T12:20:17.186Z,5.90
2019-05-25T12:21:17.145Z,7.20
2019-05-25T12:22:17.133Z,7.40
2019-05-25T12:23:17.138Z,8.80
2019-05-25T12:24:17.113Z,5.60
2019-05-25T12:25:17.132Z,8.20
2019-05-25T12:26:17.101Z,7.00
2019-05-25T12:27:17.081Z,6.90
2019-05-25T12:28:17.074Z,7.60
2019-05-25T12:29:17.061Z,5.20
2019-05-25T12:30:17.075Z,7.30
2019-05-25T12:31:17.039Z,6.40
2019-05-25T12:32:17.032Z,6.40
2019-05-25T12:33:17.027Z,6.00
2019-05-25T12:34:17.007Z,6.90
2019-05-25T12:35:17.031Z,7.10
2019-05-25T12:36:16.997Z,25.30
2019-05-25T12:37:16.978Z,10.90
2019-05-25T12:38:16.984Z,8.00
2019-05-25T12:39:16.968Z,7.40
2019-05-25T12:40:16.973Z,6.30
2019-05-25T12:41:16.952Z,28.30
2019-05-25T12:42:16.929Z,68.30
2019-05-25T12:43:16.931Z,67.10
2019-05-25T12:44:16.909Z,8.90
2019-05-25T12:45:16.927Z,8.00
2019-05-25T12:46:16.891Z,5.70
2019-05-25T12:47:16.878Z,9.10
2019-05-25T12:48:16.863Z,8.10
2019-05-25T12:49:16.856Z,6.20
2019-05-25T12:50:16.872Z,6.70
2019-05-25T12:51:17.839Z,5.60
2019-05-25T12:52:16.820Z,6.50
2019-05-25T12:53:16.812Z,4.60
2019-05-25T12:54:16.803Z,6.50
2019-05-25T12:55:16.813Z,6.50
2019-05-25T12:56:16.776Z,8.20
2019-05-25T12:57:16.778Z,6.40
2019-05-25T12:58:16.760Z,6.40
2019-05-25T12:59:16.751Z,7.30
2019-05-25T13:00:17.069Z,8.40
2019-05-25T13:01:16.725Z,5.40
2019-05-25T13:02:16.717Z,6.80
2019-05-25T13:03:16.706Z,4.80
2019-05-25T13:04:16.695Z,6.60